AirNav   Advertisement
 
 270 users online  

7Y9 Big Falls Municipal Airport
Big Falls, Minnesota, USA


FAA INFORMATION EFFECTIVE 20 JULY 2017

Location

FAA Identifier: 7Y9
Lat/Long: 48-12-01.8564N / 093-45-44.5548W
48-12.030940N / 093-45.742580W
48.2005157 / -93.7623763
(estimated)
Elevation: 1232 ft. / 376 m (estimated)
Variation: 03E (1985)
From city: 3 miles NE of BIG FALLS, MN
Time zone: UTC -5 (UTC -6 during Standard Time)
Zip code: 56627

Airport Operations

Airport use: Open to the public
Activation date: 01/1951
Control tower: no
ARTCC: MINNEAPOLIS CENTER
FSS: PRINCETON FLIGHT SERVICE STATION
NOTAMs facility: PNM (NOTAM-D service available)
Attendance: UNATNDD
Wind indicator: lighted
Segmented circle: no
Lights: SS-SR

Airport Communications

CTAF: 122.9

Nearby radio navigation aids

VOR radial/distance  VOR name  Freq  Var
INLr207/26.1INTERNATIONAL FALLS VORTA111.0006E

 
NDB name  Hdg/Dist  Freq  Var  ID
BIGFORK348/25.434502EFOZ ..-. --- --..
FORT FRANCES195/30.737602EYAG -.-- .- --.
ORR285/37.734102EORB --- .-. -...

Airport Services

Parking: tiedowns
Airframe service: NONE
Powerplant service: NONE
Bottled oxygen: NONE
Bulk oxygen: NONE

Runway Information

Runway 3/21

Dimensions: 2850 x 100 ft. / 869 x 30 m
Surface: turf, in fair condition
Runway edge markings: RY 03/21 MKD WITH YELLOW CONES.
RUNWAY 3  RUNWAY 21
Latitude: 48-11.925120N48-12.307860N
Longitude: 093-45.766500W093-45.361320W
Traffic pattern: leftleft
Displaced threshold: no785 ft.
Obstructions: 50 ft. trees, 531 ft. from runway, 152 ft. right of centerline, 10:1 slope to clear73 ft. trees, 402 ft. from runway, 147 ft. left of centerline, 5:1 slope to clear

Runway 11/29

Dimensions: 2602 x 200 ft. / 793 x 61 m
Surface: turf, in fair condition
Runway edge lights: non-standard
NSTD LIRL DUE TO SPACING.
Runway edge markings: RY 11/29 MKD WITH YELLOW CONES.
RUNWAY 11  RUNWAY 29
Latitude: 48-12.046740N48-11.828633N
Longitude: 093-46.213800W093-45.663053W
Gradient: 0.1%0.1%
Traffic pattern: leftleft
Obstructions: 61 ft. trees, 903 ft. from runway, 197 ft. right of centerline, 14:1 slope to clear82 ft. trees, 1717 ft. from runway, 72 ft. right of centerline, 20:1 slope to clear

Airport Ownership and Management from official FAA records

Ownership: Publicly-owned
Owner: CITY OF BIG FALLS
P.O. BOX 196
BIG FALLS, MN 56627
Phone 218-276-2282
Manager: TERRY BAIRD
P.O. BOX 196
BIG FALLS, MN 56627
Phone 218-556-4827

Airport Operational Statistics

Aircraft based on the field: 3
Single engine airplanes: 3
    
Aircraft operations: avg 33/month *
50% transient general aviation
50% local general aviation
* for 12-month period ending 31 July 2016

Additional Remarks

ARPT SFCS NOT PLOWED IN WINTER, CALL AIRPORT MANAGER (218) 556-4827, OR CHECK NOTAMS.
ULTRALIGHT TRAFFIC ON & INVOF ARPT.

Instrument Procedures

There are no published instrument procedures at 7Y9.

Some nearby airports with instrument procedures:

KFOZ - Bigfork Municipal Airport (25 nm S)
KINL - Falls International Airport-Einarson Field (26 nm NE)
KORB - Orr Regional Airport (38 nm E)
KBDE - Baudette International Airport (46 nm NW)
KCQM - Cook Municipal Airport (49 nm SE)
 
Loc | Ops | Rwys | IFR | FBO | Links
Com | Nav | Svcs | Stats | Notes


 
Area around 7Y9 (Big Falls Municipal Airport)
 
Road maps at: MapQuest Bing Google
 
Aerial photo
No photo
 
Sectional chart

 
Airport distance calculator
Flying to Big Falls Municipal Airport? Find the distance to fly.

From to 7Y9

Sunrise and sunset
Times for 22-Jul-2017
 Local
(UTC-5)
 Zulu
(UTC)
Morning civil twilight05:0110:01
Sunrise05:3910:39
Sunset21:0402:04
Evening civil twilight21:4202:42

Current date and time
Zulu (UTC)  22-Jul-2017 07:41:53
Local (UTC-5)  22-Jul-2017 02:41:53
 
METAR
KINL 
26nm NE 
220715Z AUTO 00000KT 5SM BR CLR 12/12 A2981 RMK AO2 T01220117
KFOZ 
26nm S 
220712Z AUTO 00000KT 1/4SM FG OVC001 15/14 A2981 RMK AO2
KVWU 
30nm W 
212245Z AUTO 34007KT 10SM TSRA SCT050 OVC065 19/18 A2989 RMK AO2 P0002 LTG DSNT ALQDS
KORB 
38nm E 
220712Z AUTO 00000KT 5SM BR CLR 13/12 A2979 RMK AO2
KBDE 
47nm NW 
220653Z AUTO 10005KT 10SM CLR 16/16 A2978 RMK AO2 SLP084 T01610156
KCDD 
48nm E 
220711Z AUTO 00000KT 2SM BR CLR 12/11 A2982 RMK AO2
KCQM 
49nm SE 
220715Z AUTO 00000KT 1 1/4SM BR VV007 13/13 A2981 RMK AO2 VIS 3/4V5
TAF
KINL 
26nm NE 
220540Z 2206/2306 09006KT 3SM BR SCT150 TEMPO 2206/2209 1SM BR FM220900 12004KT 5SM BR VCSH SCT050 BKN200 TEMPO 2209/2212 3SM -TSRA BR BKN015CB FM221200 15004KT P6SM VCSH BKN015 FM221800 VRB04KT P6SM BKN040 TEMPO 2219/2223 6SM TSRA BKN030CB FM230300 30005KT P6SM BKN060
NOTAMs
Click for the latest NOTAMs
NOTAMs are issued by the DoD/FAA and will open in a separate window not controlled by AirNav.

 

 
 

Would you like to see your business listed on this page?

 If your business provides an interesting product or service to pilots, flight crews, aircraft, or users of the Big Falls Municipal Airport, you should consider listing it here.  To start the listing process, click on the button below
 
Add a business
 

Other Pages about Big Falls Municipal Airport

PDF page(s) from the Minnesota Airport Directory
 
Update a link
 
Copyright © AirNav, LLC. All rights reserved. Privacy Policy  Contact